createdAt,value
2022-08-30T00:01:57.745Z,19.27
2022-08-30T00:07:24.229Z,19.08
2022-08-30T00:12:17.085Z,18.96
2022-08-30T00:17:17.016Z,18.83
2022-08-30T00:22:16.992Z,18.60
2022-08-30T00:27:16.896Z,18.35
2022-08-30T00:32:16.894Z,18.22
2022-08-30T00:37:16.759Z,18.16
2022-08-30T00:42:16.684Z,18.18
2022-08-30T00:47:16.678Z,18.13
2022-08-30T00:52:16.571Z,18.04
2022-08-30T00:57:16.503Z,18.00
2022-08-30T01:02:16.497Z,17.90
2022-08-30T01:07:16.347Z,17.78
2022-08-30T01:12:16.289Z,17.71
2022-08-30T01:17:16.197Z,17.45
2022-08-30T01:22:16.150Z,17.20
2022-08-30T01:27:16.062Z,17.12
2022-08-30T01:32:18.714Z,17.12
2022-08-30T01:37:15.996Z,17.23
2022-08-30T01:42:15.878Z,17.22
2022-08-30T01:47:15.810Z,17.14
2022-08-30T01:52:15.768Z,17.01
2022-08-30T01:57:15.670Z,17.02
2022-08-30T02:02:15.612Z,17.01
2022-08-30T02:07:17.063Z,17.08
2022-08-30T02:12:15.510Z,17.20
2022-08-30T02:17:15.406Z,17.24
2022-08-30T02:22:15.346Z,17.16
2022-08-30T02:27:15.248Z,17.05
2022-08-30T02:32:15.205Z,16.96
2022-08-30T02:37:15.220Z,16.84
2022-08-30T02:42:15.072Z,16.72
2022-08-30T02:47:15.012Z,16.60
2022-08-30T02:52:14.942Z,16.56
2022-08-30T02:57:19.974Z,16.39
2022-08-30T03:02:15.803Z,16.29
2022-08-30T03:07:14.746Z,16.23
2022-08-30T03:12:14.667Z,16.09
2022-08-30T03:17:15.753Z,15.98
2022-08-30T03:22:14.542Z,15.98
2022-08-30T03:27:14.481Z,16.00
2022-08-30T03:32:14.470Z,15.92
2022-08-30T03:37:14.365Z,15.92
2022-08-30T03:42:14.399Z,15.90
2022-08-30T03:47:14.261Z,15.79
2022-08-30T03:52:14.184Z,15.82
2022-08-30T03:57:20.142Z,15.68
2022-08-30T04:02:15.083Z,15.65
2022-08-30T04:07:13.956Z,15.72
2022-08-30T04:12:13.909Z,15.67
2022-08-30T04:17:24.334Z,15.65
2022-08-30T04:22:16.762Z,15.59
2022-08-30T04:27:16.644Z,15.57
2022-08-30T04:32:16.605Z,15.65
2022-08-30T04:37:16.505Z,15.79
2022-08-30T04:42:16.445Z,15.90
2022-08-30T04:47:16.374Z,16.05
2022-08-30T04:52:16.476Z,16.17
2022-08-30T04:57:16.377Z,16.15
2022-08-30T05:02:16.292Z,16.16
2022-08-30T05:07:16.149Z,16.17
2022-08-30T05:12:16.305Z,16.15
2022-08-30T05:17:16.058Z,16.08
2022-08-30T05:22:15.948Z,16.09
2022-08-30T05:27:15.837Z,16.13
2022-08-30T05:32:15.790Z,16.20
2022-08-30T05:37:15.739Z,16.33
2022-08-30T05:42:16.955Z,16.53
2022-08-30T05:47:15.580Z,16.76
2022-08-30T05:52:15.544Z,17.05
2022-08-30T05:57:15.453Z,17.20
2022-08-30T06:02:15.483Z,17.29
2022-08-30T06:07:16.482Z,17.36
2022-08-30T06:12:15.239Z,17.51
2022-08-30T06:17:15.233Z,17.30
2022-08-30T06:22:15.093Z,17.39
2022-08-30T06:27:15.066Z,17.59
2022-08-30T06:32:15.106Z,17.67
2022-08-30T06:37:29.762Z,18.01
2022-08-30T06:42:15.947Z,18.92
2022-08-30T06:47:14.792Z,19.94
2022-08-30T06:52:14.764Z,20.56
2022-08-30T06:57:14.643Z,21.39
2022-08-30T07:02:14.728Z,22.59
2022-08-30T07:07:14.563Z,23.25
2022-08-30T07:12:14.486Z,23.63
2022-08-30T07:17:14.425Z,23.84
2022-08-30T07:22:14.328Z,23.10
2022-08-30T07:27:14.265Z,23.36
2022-08-30T07:32:14.202Z,23.43
2022-08-30T07:37:14.531Z,23.96
2022-08-30T07:42:14.084Z,24.42
2022-08-30T07:47:13.986Z,24.16
2022-08-30T07:52:13.983Z,23.55
2022-08-30T07:57:16.030Z,23.59
2022-08-30T08:02:13.934Z,23.98
2022-08-30T08:07:13.813Z,25.50
2022-08-30T08:12:13.661Z,27.17
2022-08-30T08:17:13.613Z,28.44
2022-08-30T08:22:21.682Z,28.27
2022-08-30T08:27:14.536Z,28.41
2022-08-30T08:32:13.431Z,29.93
2022-08-30T08:37:13.332Z,30.23
2022-08-30T08:42:13.291Z,31.17
2022-08-30T08:47:13.709Z,31.58
2022-08-30T08:52:13.250Z,32.52
2022-08-30T08:57:15.992Z,32.80
2022-08-30T09:02:13.030Z,32.93
2022-08-30T09:07:12.965Z,34.01
2022-08-30T09:12:12.886Z,34.36
2022-08-30T09:17:12.828Z,34.35
2022-08-30T09:22:12.790Z,34.85
2022-08-30T09:27:12.677Z,35.33
2022-08-30T09:32:25.297Z,35.82
2022-08-30T09:37:13.582Z,35.76
2022-08-30T09:42:12.507Z,36.07
2022-08-30T09:47:12.452Z,35.92
2022-08-30T09:52:12.424Z,35.76
2022-08-30T09:57:12.965Z,36.43
2022-08-30T10:02:12.334Z,37.10
2022-08-30T10:07:12.993Z,37.42
2022-08-30T10:12:12.174Z,37.99
2022-08-30T10:22:13.040Z,37.42
2022-08-30T10:27:11.982Z,37.23
2022-08-30T10:32:11.930Z,37.40
2022-08-30T10:37:11.856Z,37.80
2022-08-30T10:42:11.829Z,38.40
2022-08-30T10:47:11.721Z,37.87
2022-08-30T10:52:11.682Z,38.06
2022-08-30T10:57:11.597Z,38.11
2022-08-30T11:02:11.522Z,38.11
2022-08-30T11:07:11.472Z,38.19
2022-08-30T11:12:11.414Z,38.28
2022-08-30T11:17:11.368Z,38.54
2022-08-30T11:22:11.301Z,38.14
2022-08-30T11:27:11.224Z,38.27
2022-08-30T11:32:12.006Z,37.94
2022-08-30T11:37:11.210Z,38.04
2022-08-30T11:42:11.052Z,38.40
2022-08-30T11:47:10.984Z,38.23
2022-08-30T11:52:28.292Z,37.78
2022-08-30T11:57:11.895Z,38.39
2022-08-30T12:02:10.848Z,38.21
2022-08-30T12:07:10.724Z,37.89
2022-08-30T12:12:10.717Z,37.65
2022-08-30T12:17:10.604Z,37.14
2022-08-30T12:22:10.661Z,37.28
2022-08-30T12:27:11.272Z,36.54
2022-08-30T12:32:10.501Z,36.52
2022-08-30T12:37:10.388Z,34.86
2022-08-30T12:42:10.320Z,35.17
2022-08-30T12:47:10.283Z,36.67
2022-08-30T12:52:10.203Z,37.06
2022-08-30T12:57:32.074Z,37.06
2022-08-30T13:02:20.326Z,36.70
2022-08-30T13:07:11.019Z,35.51
2022-08-30T13:12:09.917Z,34.16
2022-08-30T13:17:09.874Z,32.49
2022-08-30T13:22:09.965Z,32.08
2022-08-30T13:27:09.759Z,32.04
2022-08-30T13:32:09.697Z,32.19
2022-08-30T13:37:47.256Z,31.99
2022-08-30T13:52:20.380Z,30.73
2022-08-30T13:57:10.366Z,30.46
2022-08-30T14:02:11.438Z,30.40
2022-08-30T14:07:13.891Z,30.77
2022-08-30T14:12:10.157Z,30.62
2022-08-30T14:17:09.156Z,30.40
2022-08-30T14:22:09.058Z,30.62
2022-08-30T14:27:08.955Z,30.97
2022-08-30T14:32:08.929Z,31.55
2022-08-30T14:37:08.839Z,31.74
2022-08-30T14:42:09.549Z,31.78
2022-08-30T14:47:08.732Z,31.90
2022-08-30T14:52:08.640Z,31.52
2022-08-30T14:57:08.597Z,31.76
2022-08-30T15:02:08.526Z,31.65
2022-08-30T15:07:13.115Z,31.28
2022-08-30T15:12:09.426Z,30.57
2022-08-30T15:17:08.401Z,30.77
2022-08-30T15:22:08.305Z,31.00
2022-08-30T15:27:08.198Z,31.14
2022-08-30T15:32:08.160Z,30.94
2022-08-30T15:37:08.097Z,30.77
2022-08-30T15:42:08.030Z,30.57
2022-08-30T15:47:08.328Z,30.50
2022-08-30T15:52:10.103Z,30.25
2022-08-30T15:57:07.833Z,30.25
2022-08-30T16:02:07.820Z,30.09
2022-08-30T16:07:07.715Z,29.90
2022-08-30T16:12:07.676Z,29.84
2022-08-30T16:17:07.604Z,29.93
2022-08-30T16:22:07.605Z,29.69
2022-08-30T16:27:08.795Z,29.47
2022-08-30T16:32:07.399Z,29.39
2022-08-30T16:37:07.312Z,29.14
2022-08-30T16:42:07.273Z,28.64
2022-08-30T16:47:11.427Z,28.42
2022-08-30T16:52:08.150Z,28.23
2022-08-30T16:57:07.051Z,28.07
2022-08-30T17:02:07.065Z,27.86
2022-08-30T17:07:06.943Z,27.78
2022-08-30T17:12:07.891Z,27.65
2022-08-30T17:17:06.788Z,27.49
2022-08-30T17:22:08.695Z,27.29
2022-08-30T17:27:06.655Z,27.18
2022-08-30T17:32:06.611Z,27.00
2022-08-30T17:37:07.054Z,26.74
2022-08-30T17:42:06.457Z,26.40
2022-08-30T17:47:06.388Z,25.96
2022-08-30T17:52:06.347Z,25.66
2022-08-30T17:57:10.135Z,25.40
2022-08-30T18:02:06.232Z,25.23
2022-08-30T18:07:06.466Z,25.04
2022-08-30T18:12:06.050Z,24.80
2022-08-30T18:17:06.075Z,24.50
2022-08-30T18:22:05.989Z,24.39
2022-08-30T18:27:05.867Z,24.39
2022-08-30T18:32:05.788Z,24.43
2022-08-30T18:37:05.735Z,24.47
2022-08-30T18:42:06.775Z,24.42
2022-08-30T18:47:05.875Z,24.42
2022-08-30T18:52:05.544Z,24.39
2022-08-30T18:57:05.523Z,24.36
2022-08-30T19:02:05.538Z,24.36
2022-08-30T19:07:05.498Z,24.33
2022-08-30T19:12:09.434Z,24.33
2022-08-30T19:17:07.207Z,24.30
2022-08-30T19:22:05.127Z,24.28
2022-08-30T19:27:05.283Z,24.18
2022-08-30T19:32:05.027Z,24.14
2022-08-30T19:37:04.966Z,24.06
2022-08-30T19:42:04.885Z,24.02
2022-08-30T19:47:04.829Z,23.96
2022-08-30T19:52:04.764Z,23.95
2022-08-30T19:57:04.693Z,23.87
2022-08-30T20:02:04.722Z,23.78
2022-08-30T20:07:04.587Z,23.74
2022-08-30T20:12:04.495Z,23.66
2022-08-30T20:17:04.465Z,23.62
2022-08-30T20:22:08.099Z,23.56
2022-08-30T20:27:04.309Z,23.50
2022-08-30T20:32:04.351Z,23.46
2022-08-30T20:37:04.194Z,23.40
2022-08-30T20:42:04.102Z,23.37
2022-08-30T20:47:04.479Z,23.39
2022-08-30T20:52:04.837Z,23.34
2022-08-30T20:57:03.949Z,23.32
2022-08-30T21:02:03.858Z,23.25
2022-08-30T21:07:03.807Z,23.20
2022-08-30T21:12:03.761Z,23.18
2022-08-30T21:17:03.719Z,23.15
2022-08-30T21:22:03.556Z,23.10
2022-08-30T21:27:03.594Z,23.05
2022-08-30T21:32:03.450Z,23.03
2022-08-30T21:37:03.416Z,23.00
2022-08-30T21:42:03.365Z,22.96
2022-08-30T21:47:03.222Z,22.93
2022-08-30T21:52:03.201Z,22.91
2022-08-30T21:57:03.095Z,22.85
2022-08-30T22:02:03.073Z,22.90
2022-08-30T22:07:02.976Z,22.90
2022-08-30T22:12:02.987Z,22.87
2022-08-30T22:17:02.950Z,22.87
2022-08-30T22:22:02.732Z,22.83
2022-08-30T22:27:02.798Z,22.83
2022-08-30T22:32:02.734Z,22.81
2022-08-30T22:37:02.605Z,22.81
2022-08-30T22:42:02.677Z,22.80
2022-08-30T22:47:02.466Z,22.66
2022-08-30T22:52:02.358Z,22.62
2022-08-30T22:57:02.917Z,22.63
2022-08-30T23:02:02.477Z,22.59
2022-08-30T23:07:02.180Z,22.57
2022-08-30T23:12:02.394Z,22.53
2022-08-30T23:17:02.039Z,22.51
2022-08-30T23:22:02.004Z,22.54
2022-08-30T23:27:03.220Z,22.51
2022-08-30T23:32:01.885Z,22.50
2022-08-30T23:37:01.897Z,22.45
2022-08-30T23:42:01.789Z,22.43
2022-08-30T23:47:01.810Z,22.43
2022-08-30T23:52:01.645Z,22.44
2022-08-30T23:57:01.663Z,22.41
